Time;durP1;ratioP1;P1;durP2;ratioP2;P2;SDS_P1;SDS_P2;PMS_P1;PMS_P2;Temp;Humidity;BMP_temperature;BMP_pressure;BME280_temperature;BME280_humidity;BME280_pressure;Samples;Min_cycle;Max_cycle;Signal;HPM_P1;HPM_P2
2021/05/20 00:00:08;;;;;;;1.07;1.07;;;;;;;22.10;61.71;98473.11;1840341;77;21556;-67
2021/05/20 00:02:36;;;;;;;0.80;0.80;;;;;;;22.08;61.71;98482.04;1831941;76;21049;-66
2021/05/20 00:05:04;;;;;;;0.90;0.90;;;;;;;22.08;61.74;98478.50;1827393;76;21529;-66
2021/05/20 00:07:31;;;;;;;0.90;0.90;;;;;;;22.07;61.75;98481.75;1816693;77;21121;-67
2021/05/20 00:09:59;;;;;;;0.90;0.90;;;;;;;22.05;61.78;98473.66;1835267;76;21060;-66
2021/05/20 00:12:25;;;;;;;0.85;0.85;;;;;;;22.04;61.82;98476.91;1823172;76;21541;-67
2021/05/20 00:14:52;;;;;;;0.90;0.90;;;;;;;22.03;61.83;98469.87;1820991;76;21036;-68
2021/05/20 00:17:19;;;;;;;0.90;0.90;;;;;;;22.02;61.82;98469.63;1831571;76;21542;-67
2021/05/20 00:19:45;;;;;;;0.90;0.90;;;;;;;22.01;61.83;98470.69;1824889;76;21167;-68
2021/05/20 00:22:12;;;;;;;1.20;1.10;;;;;;;22.00;61.84;98474.49;1840790;76;21536;-68
2021/05/20 00:24:38;;;;;;;0.82;0.82;;;;;;;21.99;61.87;98475.02;1828088;76;21028;-67
2021/05/20 00:27:06;;;;;;;0.95;0.90;;;;;;;21.97;61.90;98478.53;1837197;76;21600;-67
2021/05/20 00:29:32;;;;;;;0.80;0.80;;;;;;;21.96;61.90;98476.93;1843369;77;21029;-67
2021/05/20 00:31:59;;;;;;;0.90;0.90;;;;;;;21.96;61.94;98481.50;1826417;76;21022;-66
2021/05/20 00:34:27;;;;;;;0.90;0.90;;;;;;;21.95;61.95;98480.70;1843232;76;21589;-66
2021/05/20 00:36:53;;;;;;;0.80;0.80;;;;;;;21.95;61.96;98482.05;1842782;76;21041;-69
2021/05/20 00:39:20;;;;;;;1.00;1.00;;;;;;;21.92;61.97;98473.67;1837218;76;21574;-66
2021/05/20 00:41:47;;;;;;;1.00;0.90;;;;;;;21.93;61.96;98480.72;1837425;77;21037;-67
2021/05/20 00:44:13;;;;;;;0.80;0.80;;;;;;;21.92;61.98;98479.08;1842320;76;21065;-69
2021/05/20 00:46:39;;;;;;;0.90;0.90;;;;;;;21.91;62.00;98480.98;1823104;77;21675;-67
2021/05/20 00:49:10;;;;;;;0.93;0.93;;;;;;;21.90;62.00;98476.64;1821937;76;21068;-67
2021/05/20 00:51:34;;;;;;;0.80;0.80;;;;;;;21.90;62.02;98467.73;1839153;76;21040;-67
2021/05/20 00:54:01;;;;;;;1.20;1.10;;;;;;;21.88;62.01;98473.95;1819688;76;20994;-68
2021/05/20 00:56:27;;;;;;;0.78;0.78;;;;;;;21.87;62.04;98473.16;1806421;77;21079;-67
2021/05/20 00:58:54;;;;;;;0.78;0.78;;;;;;;21.86;62.04;98478.28;1844334;76;21088;-68
2021/05/20 01:01:20;;;;;;;0.90;0.90;;;;;;;21.86;62.08;98476.13;1827616;76;21029;-68
2021/05/20 01:03:47;;;;;;;0.90;0.90;;;;;;;21.85;62.10;98479.92;1832408;76;21086;-67
2021/05/20 01:06:15;;;;;;;0.80;0.80;;;;;;;21.84;62.12;98487.20;1822381;76;21025;-69
2021/05/20 01:08:42;;;;;;;0.78;0.78;;;;;;;21.83;62.13;98478.01;1839115;77;21147;-68
2021/05/20 01:11:09;;;;;;;0.80;0.80;;;;;;;21.82;62.12;98482.61;1841048;76;21053;-68
2021/05/20 01:13:36;;;;;;;0.70;0.70;;;;;;;21.80;62.17;98482.08;1845263;77;21596;-67
2021/05/20 01:16:10;;;;;;;0.82;0.82;;;;;;;21.80;62.17;98488.84;1838904;76;21037;-68
2021/05/20 01:18:38;;;;;;;1.00;0.90;;;;;;;21.79;62.16;98473.72;1839295;76;21611;-67
2021/05/20 01:21:05;;;;;;;0.90;0.90;;;;;;;21.78;62.21;98480.19;1828822;75;21045;-67
2021/05/20 01:23:31;;;;;;;0.90;0.90;;;;;;;21.76;62.22;98476.41;1844125;75;21045;-65
2021/05/20 01:26:01;;;;;;;1.07;0.95;;;;;;;21.76;62.25;98479.10;1833929;75;21048;-67
2021/05/20 01:28:30;;;;;;;0.80;0.80;;;;;;;21.75;62.26;98478.84;1848401;75;21061;-66
2021/05/20 01:30:56;;;;;;;0.80;0.80;;;;;;;21.75;62.30;98472.09;1835591;75;21069;-68
2021/05/20 01:35:16;;;;;;;0.90;0.90;;;;;;;21.79;62.32;98473.16;1815858;76;22563;-68
2021/05/20 01:37:43;;;;;;;1.00;0.90;;;;;;;21.69;62.44;98472.36;1796925;78;20954;-66
2021/05/20 01:40:12;;;;;;;0.93;0.93;;;;;;;21.71;62.47;98477.78;1782902;77;21581;-68
2021/05/20 01:42:38;;;;;;;1.00;1.00;;;;;;;21.72;62.46;98477.23;1787543;77;20951;-66
2021/05/20 01:45:07;;;;;;;0.80;0.80;;;;;;;21.72;62.50;98475.88;1786982;78;21011;-66
2021/05/20 01:47:36;;;;;;;1.00;1.00;;;;;;;21.70;62.53;98469.39;1783197;77;21161;-67
2021/05/20 01:50:03;;;;;;;1.50;1.40;;;;;;;21.70;62.56;98472.64;1787109;78;20982;-66
2021/05/20 01:52:30;;;;;;;1.00;1.00;;;;;;;21.69;62.60;98477.77;1788996;78;21077;-67
2021/05/20 01:54:57;;;;;;;1.00;1.00;;;;;;;21.70;62.61;98469.39;1782260;78;21026;-67
2021/05/20 01:57:23;;;;;;;1.10;1.00;;;;;;;21.69;62.62;98470.48;1793205;78;21022;-67
2021/05/20 01:59:50;;;;;;;0.90;0.90;;;;;;;21.70;62.66;98466.69;1780449;79;21065;-66
2021/05/20 02:02:16;;;;;;;1.42;1.17;;;;;;;21.70;62.67;98477.49;1785506;78;21537;-68
2021/05/20 02:04:42;;;;;;;0.98;0.98;;;;;;;21.69;62.68;98477.23;1788059;78;21085;-67
2021/05/20 02:07:09;;;;;;;1.07;1.00;;;;;;;21.69;62.69;98471.00;1776428;79;21137;-68
2021/05/20 02:09:35;;;;;;;1.10;1.00;;;;;;;21.69;62.68;98474.54;1786251;77;21546;-68
2021/05/20 02:12:03;;;;;;;0.90;0.90;;;;;;;21.70;62.71;98469.94;1790551;79;21042;-69
2021/05/20 02:14:30;;;;;;;1.25;1.15;;;;;;;21.69;62.69;98475.89;1786129;78;21122;-68
2021/05/20 02:16:56;;;;;;;0.95;0.95;;;;;;;21.69;62.67;98467.78;1789938;78;21081;-69
2021/05/20 02:19:24;;;;;;;1.10;1.00;;;;;;;21.68;62.66;98472.91;1784554;79;21609;-67
2021/05/20 02:21:52;;;;;;;1.00;1.00;;;;;;;21.69;62.68;98469.66;1785041;78;21107;-67
2021/05/20 02:24:18;;;;;;;1.10;1.00;;;;;;;21.69;62.68;98473.70;1787912;78;21019;-67
2021/05/20 02:26:45;;;;;;;0.90;0.90;;;;;;;21.68;62.69;98471.55;1793442;78;21051;-67
2021/05/20 02:29:11;;;;;;;1.10;1.10;;;;;;;21.69;62.68;98473.70;1774221;78;21600;-68
2021/05/20 02:31:38;;;;;;;1.10;1.10;;;;;;;21.68;62.67;98470.20;1786739;78;21093;-67
2021/05/20 02:34:05;;;;;;;1.20;1.10;;;;;;;21.69;62.67;98468.30;1781279;77;21035;-68
2021/05/20 02:36:31;;;;;;;0.90;0.90;;;;;;;21.68;62.67;98468.85;1770209;78;21354;-67
2021/05/20 02:38:58;;;;;;;1.05;1.02;;;;;;;21.69;62.65;98463.73;1749915;79;21078;-67
2021/05/20 02:41:24;;;;;;;1.20;1.10;;;;;;;21.68;62.66;98466.70;1722740;82;21058;-67
2021/05/20 02:43:51;;;;;;;0.90;0.90;;;;;;;21.69;62.61;98464.25;1743488;80;21261;-68
2021/05/20 02:46:17;;;;;;;1.00;1.00;;;;;;;21.69;62.63;98464.25;1731999;81;21051;-66
2021/05/20 02:48:44;;;;;;;1.12;1.10;;;;;;;21.68;62.64;98466.70;1749137;80;21077;-69
2021/05/20 02:51:11;;;;;;;1.20;1.10;;;;;;;21.68;62.63;98467.50;1736421;81;21048;-68
2021/05/20 02:53:37;;;;;;;1.45;1.35;;;;;;;21.66;62.62;98462.91;1745315;81;21078;-68
2021/05/20 02:56:04;;;;;;;1.25;1.15;;;;;;;21.68;62.61;98473.45;1752301;80;21086;-68
2021/05/20 02:58:32;;;;;;;0.90;0.90;;;;;;;21.68;62.62;98474.80;1769869;79;21054;-67
2021/05/20 03:00:58;;;;;;;1.00;1.00;;;;;;;21.68;62.61;98470.75;1792816;78;21016;-67
2021/05/20 03:03:24;;;;;;;1.20;1.10;;;;;;;21.67;62.59;98467.77;1789640;79;21007;-66
2021/05/20 03:05:53;;;;;;;1.42;1.00;;;;;;;21.68;62.59;98469.40;1780754;78;21748;-67
2021/05/20 03:08:19;;;;;;;1.00;1.00;;;;;;;21.66;62.59;98468.31;1776372;79;21150;-67
2021/05/20 03:10:45;;;;;;;1.10;1.10;;;;;;;21.66;62.59;98466.96;1782432;78;21086;-68
2021/05/20 03:13:12;;;;;;;1.15;1.00;;;;;;;21.66;62.57;98467.52;1782283;78;21067;-69
2021/05/20 03:15:39;;;;;;;0.85;0.85;;;;;;;21.65;62.58;98469.37;1785479;79;21577;-68
2021/05/20 03:18:05;;;;;;;1.57;1.47;;;;;;;21.65;62.62;98472.08;1731263;82;21121;-67
2021/05/20 03:20:32;;;;;;;1.00;0.90;;;;;;;21.66;62.61;98472.91;1758688;81;21078;-69
2021/05/20 03:22:58;;;;;;;1.20;1.10;;;;;;;21.67;62.63;98473.17;1785351;79;21049;-67
2021/05/20 03:25:24;;;;;;;1.02;1.02;;;;;;;21.66;62.64;98463.45;1788341;78;21063;-67
2021/05/20 03:27:51;;;;;;;1.15;1.10;;;;;;;21.67;62.63;98468.59;1796785;79;21070;-68
2021/05/20 03:30:19;;;;;;;0.90;0.90;;;;;;;21.67;62.63;98468.59;1776185;78;21113;-67
2021/05/20 03:32:45;;;;;;;1.30;0.93;;;;;;;21.68;62.64;98471.55;1775703;79;21087;-67
2021/05/20 03:35:12;;;;;;;1.07;1.07;;;;;;;21.69;62.66;98468.30;1739485;80;21129;-67
2021/05/20 03:37:38;;;;;;;0.98;0.93;;;;;;;21.70;62.68;98471.28;1763343;81;21554;-68
2021/05/20 03:40:06;;;;;;;1.10;1.00;;;;;;;21.70;62.67;98473.44;1757015;80;21030;-68
2021/05/20 03:42:32;;;;;;;0.90;0.90;;;;;;;21.72;62.68;98470.47;1735736;81;22335;-67
2021/05/20 03:44:59;;;;;;;1.00;1.00;;;;;;;21.73;62.72;98466.67;1743251;81;21079;-68
2021/05/20 03:47:25;;;;;;;1.05;1.05;;;;;;;21.74;62.72;98461.00;1737693;80;21051;-68
2021/05/20 03:49:52;;;;;;;1.17;1.07;;;;;;;21.76;62.71;98468.84;1747049;81;21583;-69
2021/05/20 03:52:18;;;;;;;1.35;1.25;;;;;;;21.77;62.69;98469.92;1775616;79;22183;-68
2021/05/20 03:54:45;;;;;;;0.90;0.90;;;;;;;21.78;62.68;98471.53;1775352;79;21078;-69
2021/05/20 03:57:11;;;;;;;1.00;1.00;;;;;;;21.80;62.70;98468.56;1768849;79;21114;-67
2021/05/20 03:59:38;;;;;;;0.98;0.93;;;;;;;21.82;62.70;98471.80;1774281;79;21597;-68
2021/05/20 04:02:04;;;;;;;0.90;0.90;;;;;;;21.84;62.70;98473.69;1758831;79;21110;-68
2021/05/20 04:04:32;;;;;;;1.02;1.00;;;;;;;21.84;62.70;98477.74;1774793;79;21043;-68
2021/05/20 04:06:58;;;;;;;1.10;1.00;;;;;;;21.87;62.68;98481.27;1766591;78;21019;-70
2021/05/20 04:09:24;;;;;;;1.17;1.15;;;;;;;21.89;62.67;98482.34;1792294;79;21079;-68
2021/05/20 04:11:51;;;;;;;1.47;0.93;;;;;;;21.91;62.67;98472.88;1775099;78;21553;-69
2021/05/20 04:14:18;;;;;;;1.20;1.10;;;;;;;21.94;62.67;98480.45;1772401;79;21114;-68
2021/05/20 04:16:44;;;;;;;1.00;0.95;;;;;;;21.96;62.65;98473.39;1781048;79;21055;-68
2021/05/20 04:19:11;;;;;;;0.82;0.82;;;;;;;21.98;62.65;98480.69;1783130;79;21630;-68
2021/05/20 04:21:39;;;;;;;1.02;1.00;;;;;;;22.00;62.63;98474.49;1774658;79;21701;-68
2021/05/20 04:24:08;;;;;;;0.90;0.90;;;;;;;22.03;62.62;98474.48;1762037;78;21652;-69
2021/05/20 04:26:35;;;;;;;1.10;1.10;;;;;;;22.05;62.59;98482.58;1778706;78;21161;-69
2021/05/20 04:29:02;;;;;;;1.10;1.10;;;;;;;22.08;62.59;98491.50;1779023;78;21078;-67
2021/05/20 04:31:28;;;;;;;1.20;1.10;;;;;;;22.11;62.56;98486.08;1730291;82;21098;-68
2021/05/20 04:33:54;;;;;;;0.90;0.90;;;;;;;22.13;62.55;98483.36;1734756;81;21051;-68
2021/05/20 04:36:21;;;;;;;0.93;0.80;;;;;;;22.15;62.54;98486.59;1751125;81;21077;-68
2021/05/20 04:38:47;;;;;;;1.37;1.00;;;;;;;22.17;62.54;98492.56;1808855;77;21042;-67
2021/05/20 04:41:14;;;;;;;1.10;1.00;;;;;;;22.20;62.55;98487.14;1808159;77;21058;-68
2021/05/20 04:43:40;;;;;;;0.95;0.95;;;;;;;22.21;62.55;98485.23;1790794;78;21156;-68
2021/05/20 04:46:07;;;;;;;1.27;1.17;;;;;;;22.24;62.59;98490.11;1793575;77;21081;-67
2021/05/20 04:48:33;;;;;;;1.10;1.00;;;;;;;22.25;62.57;98487.17;1736484;80;21057;-69
2021/05/20 04:51:01;;;;;;;0.90;0.90;;;;;;;22.27;62.60;98490.41;1771982;78;21092;-67
2021/05/20 04:53:28;;;;;;;1.10;1.10;;;;;;;22.29;62.61;98495.52;1790697;78;21392;-68
2021/05/20 04:55:54;;;;;;;1.35;1.00;;;;;;;22.33;62.63;98488.50;1799835;78;21063;-67
2021/05/20 04:58:22;;;;;;;1.05;1.05;;;;;;;22.35;62.61;98488.48;1796629;78;21090;-68
2021/05/20 05:00:48;;;;;;;0.90;0.90;;;;;;;22.37;62.62;98494.97;1792771;77;21078;-68
2021/05/20 05:03:16;;;;;;;0.90;0.90;;;;;;;22.41;62.60;98506.86;1768603;78;21121;-67
2021/05/20 05:05:42;;;;;;;0.90;0.90;;;;;;;22.43;62.61;98503.33;1734215;80;21081;-69
2021/05/20 05:08:09;;;;;;;1.05;1.05;;;;;;;22.45;62.60;98499.81;1817045;78;21076;-67
2021/05/20 05:10:35;;;;;;;1.20;1.10;;;;;;;22.48;62.58;98506.55;1799282;78;21074;-67
2021/05/20 05:13:02;;;;;;;1.22;1.12;;;;;;;22.49;62.59;98508.98;1801450;78;21042;-69
2021/05/20 05:15:30;;;;;;;0.80;0.80;;;;;;;22.52;62.56;98514.38;1801158;78;21050;-68
2021/05/20 05:17:56;;;;;;;0.90;0.90;;;;;;;22.54;62.52;98513.04;1809518;77;21077;-68
2021/05/20 05:20:23;;;;;;;1.00;1.00;;;;;;;22.56;62.50;98515.45;1791087;77;21066;-68
2021/05/20 05:22:49;;;;;;;0.98;0.95;;;;;;;22.57;62.45;98520.59;1791152;78;21097;-67
2021/05/20 05:25:16;;;;;;;1.10;1.10;;;;;;;22.60;62.43;98517.06;1745406;80;21081;-67
2021/05/20 05:27:42;;;;;;;1.17;1.07;;;;;;;22.62;62.38;98522.48;1769100;79;21057;-68
2021/05/20 05:30:11;;;;;;;1.20;1.10;;;;;;;22.64;62.35;98521.66;1775617;79;21061;-69
2021/05/20 05:32:37;;;;;;;1.00;1.00;;;;;;;22.66;62.31;98524.09;1784230;78;21113;-65
2021/05/20 05:35:05;;;;;;;1.07;1.07;;;;;;;22.68;62.26;98525.43;1775003;79;21114;-65
2021/05/20 05:37:31;;;;;;;1.00;1.00;;;;;;;22.71;62.24;98526.77;1762816;78;21078;-66
2021/05/20 05:39:59;;;;;;;0.93;0.93;;;;;;;22.72;62.17;98531.10;1764488;79;21574;-65
2021/05/20 05:42:25;;;;;;;1.00;1.00;;;;;;;22.75;62.17;98535.95;1766544;78;21062;-66
2021/05/20 05:44:52;;;;;;;0.95;0.95;;;;;;;22.77;62.12;98536.48;1773057;79;21083;-66
2021/05/20 05:47:18;;;;;;;1.20;1.10;;;;;;;22.80;62.07;98536.48;1788867;79;21051;-65
2021/05/20 05:49:46;;;;;;;0.90;0.90;;;;;;;22.82;62.01;98545.14;1762538;79;21024;-67
2021/05/20 05:52:19;;;;;;;0.80;0.80;;;;;;;22.83;61.99;98538.09;1776140;78;21516;-66
2021/05/20 05:54:40;;;;;;;0.93;0.93;;;;;;;22.87;61.95;98546.45;1758073;79;21586;-66
2021/05/20 05:57:07;;;;;;;1.00;0.90;;;;;;;22.88;61.90;98540.77;1790726;78;21296;-65
2021/05/20 05:59:33;;;;;;;2.55;1.00;;;;;;;22.90;61.85;98542.64;1760730;79;21074;-67
2021/05/20 06:01:59;;;;;;;0.88;0.88;;;;;;;22.91;61.81;98543.48;1784145;79;21129;-67
2021/05/20 06:04:26;;;;;;;0.93;0.93;;;;;;;22.92;61.77;98551.30;1764148;78;21626;-66
2021/05/20 06:06:54;;;;;;;1.32;0.90;;;;;;;22.93;61.74;98556.19;1764610;79;21099;-66
2021/05/20 06:09:22;;;;;;;0.90;0.90;;;;;;;22.95;61.67;98546.69;1774641;78;21614;-66
2021/05/20 06:11:48;;;;;;;1.25;0.90;;;;;;;22.95;61.64;98558.88;1712336;78;21317;-66
2021/05/20 06:14:15;;;;;;;1.12;1.07;;;;;;;22.95;61.60;98552.66;1672727;84;21056;-68
2021/05/20 06:16:43;;;;;;;0.93;0.93;;;;;;;22.96;61.55;98556.42;1740789;82;21075;-68
2021/05/20 06:19:12;;;;;;;1.10;1.00;;;;;;;22.95;61.50;98557.52;1750848;80;21046;-66
2021/05/20 06:21:38;;;;;;;1.12;1.12;;;;;;;22.95;61.49;98564.84;1753343;80;21082;-70
2021/05/20 06:24:07;;;;;;;1.00;1.00;;;;;;;22.95;61.48;98571.62;1736361;80;21614;-66
2021/05/20 06:26:33;;;;;;;1.15;1.10;;;;;;;22.95;61.46;98568.36;1733848;80;21068;-68
2021/05/20 06:29:01;;;;;;;1.00;1.00;;;;;;;22.96;61.42;98577.28;1736347;82;21079;-68
2021/05/20 06:31:28;;;;;;;1.05;1.00;;;;;;;22.96;61.40;98565.90;1737764;80;21685;-68
2021/05/20 06:33:55;;;;;;;1.12;1.02;;;;;;;22.96;61.28;98561.84;1737024;80;21084;-68
2021/05/20 06:36:23;;;;;;;1.00;1.00;;;;;;;22.97;61.29;98567.53;1760953;80;22183;-70
2021/05/20 06:38:52;;;;;;;1.52;0.95;;;;;;;22.99;61.27;98570.52;1752190;80;21067;-72
2021/05/20 06:41:20;;;;;;;1.02;1.00;;;;;;;22.99;61.26;98572.67;1747393;80;21066;-71
2021/05/20 06:43:46;;;;;;;0.90;0.90;;;;;;;23.00;61.26;98570.77;1734484;80;21636;-70
2021/05/20 06:46:15;;;;;;;1.10;1.10;;;;;;;23.00;61.26;98570.22;1682451;83;21714;-72
2021/05/20 06:48:42;;;;;;;4.35;2.02;;;;;;;23.02;61.26;98583.48;1682834;83;21103;-72
2021/05/20 06:51:08;;;;;;;4.92;2.45;;;;;;;23.02;61.02;98581.58;1686631;83;21076;-67
2021/05/20 06:53:37;;;;;;;3.10;2.08;;;;;;;23.03;60.52;98586.51;1689673;83;21111;-68
2021/05/20 06:56:06;;;;;;;2.08;1.85;;;;;;;23.04;60.13;98591.63;1686718;83;22287;-67
2021/05/20 07:01:19;;;;;;;2.75;1.80;;;;;;;23.06;57.85;98588.64;1682079;83;21076;-68
2021/05/20 07:03:45;;;;;;;4.80;2.10;;;;;;;23.06;56.99;98594.06;1681159;83;21084;-67
2021/05/20 07:06:12;;;;;;;3.65;2.30;;;;;;;23.02;56.64;98594.32;1692407;83;21696;-65
2021/05/20 07:08:39;;;;;;;4.47;2.08;;;;;;;23.02;56.25;98596.48;1677903;85;21075;-64
2021/05/20 07:11:06;;;;;;;2.95;2.37;;;;;;;23.02;55.96;98599.73;1691548;82;21693;-65
2021/05/20 07:13:33;;;;;;;2.55;1.70;;;;;;;23.03;55.57;98591.37;1679680;83;21160;-65
2021/05/20 07:15:59;;;;;;;4.22;2.30;;;;;;;23.01;55.22;98605.70;1688684;82;21079;-65
2021/05/20 07:18:26;;;;;;;2.77;2.12;;;;;;;23.00;55.09;98608.69;1698256;82;21128;-68
2021/05/20 07:20:52;;;;;;;4.85;2.00;;;;;;;23.00;54.95;98605.98;1676163;83;21579;-66
2021/05/20 07:23:20;;;;;;;5.85;2.02;;;;;;;23.00;55.03;98587.02;1711407;82;21158;-67
2021/05/20 07:25:46;;;;;;;3.27;2.02;;;;;;;23.03;55.85;98597.34;1681179;83;22498;-67
2021/05/20 07:28:13;;;;;;;6.78;3.35;;;;;;;23.06;56.28;98600.83;1754695;80;21070;-67
2021/05/20 07:30:39;;;;;;;6.08;3.30;;;;;;;23.10;56.58;98608.66;1753613;80;21062;-64
2021/05/20 07:33:06;;;;;;;3.90;2.95;;;;;;;23.14;56.74;98621.91;1744280;80;21576;-66
2021/05/20 07:35:33;;;;;;;4.17;2.67;;;;;;;23.16;56.84;98613.80;1731978;80;21163;-64
2021/05/20 07:37:59;;;;;;;3.87;2.55;;;;;;;23.20;56.99;98619.47;1744829;80;21124;-66
2021/05/20 07:40:26;;;;;;;2.83;2.33;;;;;;;23.23;57.16;98623.52;1746251;80;21052;-65
2021/05/20 07:42:52;;;;;;;4.72;2.50;;;;;;;23.26;57.23;98638.67;1744116;81;21113;-65
2021/05/20 07:45:18;;;;;;;4.05;2.37;;;;;;;23.28;57.29;98638.40;1740730;81;21078;-64
2021/05/20 07:47:47;;;;;;;3.17;2.45;;;;;;;23.30;57.34;98638.93;1738177;81;21356;-65
2021/05/20 07:50:13;;;;;;;3.83;2.30;;;;;;;23.33;57.38;98637.00;1741183;80;21121;-66
2021/05/20 07:52:41;;;;;;;3.85;2.37;;;;;;;23.35;57.40;98647.84;1742532;81;21058;-67
2021/05/20 07:55:08;;;;;;;4.40;2.30;;;;;;;;;;1741904;80;21882;-68
2021/05/20 07:57:34;;;;;;;2.98;2.25;;;;;;;23.39;57.39;98652.14;1738025;80;21080;-66
2021/05/20 08:00:01;;;;;;;3.25;1.95;;;;;;;23.42;57.37;98650.23;1743345;80;22152;-67
2021/05/20 08:02:33;;;;;;;2.52;2.00;;;;;;;23.46;57.35;98659.98;1739521;80;21149;-67
2021/05/20 08:05:01;;;;;;;3.60;2.12;;;;;;;23.49;57.30;98660.79;1744852;80;21598;-76
2021/05/20 08:12:33;;;;;;;4.83;2.30;;;;;;;23.53;57.16;98666.72;1673902;83;21090;-81
2021/05/20 08:15:01;;;;;;;2.90;2.60;;;;;;;23.55;57.15;98671.31;1744345;81;21050;-77
2021/05/20 08:17:28;;;;;;;2.72;2.42;;;;;;;23.57;57.18;98679.72;1730732;80;21097;-78
2021/05/20 08:19:55;;;;;;;3.52;2.42;;;;;;;23.59;57.21;98682.97;1729788;80;21038;-79
2021/05/20 08:22:21;;;;;;;4.47;2.12;;;;;;;23.62;57.28;98682.39;1751815;80;21103;-75
2021/05/20 08:24:48;;;;;;;3.17;2.17;;;;;;;23.66;57.47;98678.02;1751371;80;21101;-77
2021/05/20 08:27:16;;;;;;;3.20;2.20;;;;;;;23.70;57.69;98673.13;1750533;80;21272;-79
2021/05/20 08:29:42;;;;;;;3.10;2.50;;;;;;;23.76;57.92;98677.98;1702191;83;21088;-78
2021/05/20 08:32:09;;;;;;;2.45;2.20;;;;;;;23.79;58.03;98674.72;1744672;81;21587;-75
2021/05/20 08:34:35;;;;;;;2.75;2.22;;;;;;;23.84;58.03;98675.25;1751972;80;21572;-77
2021/05/20 08:37:02;;;;;;;2.20;1.90;;;;;;;23.87;57.99;98685.52;1744464;80;21077;-73
2021/05/20 08:39:29;;;;;;;3.20;2.27;;;;;;;23.90;57.94;98691.20;1751794;80;21126;-74
2021/05/20 08:41:56;;;;;;;4.30;2.22;;;;;;;23.92;57.86;98687.66;1751523;80;21090;-75
2021/05/20 08:44:29;;;;;;;2.90;2.60;;;;;;;23.94;57.77;98701.74;1746533;80;22028;-75
2021/05/20 08:46:59;;;;;;;3.22;2.20;;;;;;;23.97;57.69;98702.27;1747604;80;21058;-73
2021/05/20 08:49:27;;;;;;;4.17;2.20;;;;;;;23.98;57.56;98704.70;1745877;80;21102;-78
2021/05/20 08:51:53;;;;;;;4.60;2.33;;;;;;;23.99;57.45;98704.16;1745943;80;21094;-73
2021/05/20 08:54:23;;;;;;;2.45;2.25;;;;;;;23.99;57.36;98714.48;1749771;81;21603;-75
2021/05/20 08:56:55;;;;;;;2.98;2.37;;;;;;;24.02;57.29;98720.68;1748179;81;21589;-75
2021/05/20 08:59:22;;;;;;;3.05;2.30;;;;;;;24.03;57.17;98723.67;1750090;80;21098;-74
2021/05/20 09:01:50;;;;;;;2.77;2.10;;;;;;;24.06;57.05;98725.00;1745901;80;21141;-73
2021/05/20 09:04:17;;;;;;;2.83;2.40;;;;;;;24.07;56.98;98723.92;1715264;81;21557;-73
2021/05/20 09:06:51;;;;;;;2.17;1.90;;;;;;;24.09;56.87;98713.60;1754238;80;21061;-73
2021/05/20 09:09:30;;;;;;;2.30;1.92;;;;;;;24.12;56.82;98712.47;1747037;80;21110;-72
2021/05/20 09:11:53;;;;;;;4.67;2.10;;;;;;;24.14;56.83;98724.40;1741849;80;21602;-72
2021/05/20 09:14:41;;;;;;;3.60;2.00;;;;;;;24.19;56.84;98727.64;1740026;80;21110;-73
2021/05/20 09:17:14;;;;;;;4.42;2.17;;;;;;;24.22;56.82;98724.34;1740504;80;21054;-71
2021/05/20 09:19:45;;;;;;;4.20;2.00;;;;;;;24.28;56.68;98716.42;1744039;80;21149;-76
2021/05/20 09:22:13;;;;;;;2.90;1.80;;;;;;;24.31;56.58;98715.31;1739763;80;21071;-75
2021/05/20 09:24:49;;;;;;;5.15;2.20;;;;;;;24.35;56.43;98720.98;1741970;80;21111;-72
2021/05/20 09:27:31;;;;;;;2.42;2.00;;;;;;;24.40;56.28;98719.59;1741175;80;21086;-71
2021/05/20 09:30:24;;;;;;;2.12;1.75;;;;;;;24.45;56.10;98721.45;1737230;80;21517;-75
2021/05/20 09:33:12;;;;;;;3.25;1.70;;;;;;;24.49;55.93;98727.92;1736638;80;21110;-75
2021/05/20 09:35:42;;;;;;;1.90;1.75;;;;;;;24.52;55.79;98747.20;1739196;80;21072;-72
2021/05/20 09:38:21;;;;;;;4.47;2.08;;;;;;;24.55;55.65;98739.06;1738850;80;21106;-73
2021/05/20 09:40:55;;;;;;;2.42;1.62;;;;;;;24.60;55.46;98739.00;1725999;80;21105;-72
2021/05/20 09:43:31;;;;;;;2.83;1.85;;;;;;;24.64;55.28;98746.83;1740277;80;21655;-72
2021/05/20 09:46:14;;;;;;;2.50;1.82;;;;;;;24.69;55.12;98744.64;1746002;80;21074;-72
2021/05/20 09:48:44;;;;;;;4.50;2.10;;;;;;;24.74;55.04;98755.44;1745710;80;21126;-73
2021/05/20 09:51:27;;;;;;;2.05;1.80;;;;;;;24.78;55.00;98755.12;1739358;80;21046;-71
2021/05/20 09:53:53;;;;;;;3.00;2.10;;;;;;;24.80;54.88;98757.03;1749917;80;21634;-71
2021/05/20 09:56:40;;;;;;;2.10;1.80;;;;;;;24.82;54.72;98757.56;1740714;80;21115;-69
2021/05/20 09:59:16;;;;;;;2.55;1.80;;;;;;;24.84;54.61;98754.53;1753702;80;21637;-73
2021/05/20 10:01:43;;;;;;;2.75;1.90;;;;;;;24.84;54.51;98747.21;1739033;80;21544;-74
2021/05/20 10:04:12;;;;;;;2.05;1.65;;;;;;;24.86;54.39;98768.11;1742612;80;21149;-71
2021/05/20 10:06:43;;;;;;;3.30;2.30;;;;;;;24.88;54.33;98771.34;1697370;82;21077;-76
2021/05/20 10:09:12;;;;;;;2.73;2.00;;;;;;;24.93;54.27;98768.56;1744125;80;21121;-75
2021/05/20 10:11:41;;;;;;;2.70;2.02;;;;;;;24.96;54.35;98768.55;1734573;80;21549;-76
2021/05/20 10:14:07;;;;;;;2.27;1.82;;;;;;;24.98;54.36;98777.23;1740437;81;21078;-78
2021/05/20 10:16:41;;;;;;;2.77;1.77;;;;;;;25.01;54.29;98775.84;1731822;80;21629;-76
2021/05/20 10:19:06;;;;;;;2.70;1.65;;;;;;;25.01;54.23;98765.77;1736877;80;21094;-78
2021/05/20 10:21:33;;;;;;;2.15;1.95;;;;;;;25.02;54.11;98766.61;1733677;81;21567;-78
2021/05/20 10:24:00;;;;;;;2.65;1.60;;;;;;;25.02;53.95;98772.03;1745002;80;21065;-76
2021/05/20 10:26:27;;;;;;;2.12;1.80;;;;;;;25.03;53.87;98768.20;1743810;80;21087;-75
2021/05/20 10:28:53;;;;;;;2.20;1.72;;;;;;;25.01;53.74;98774.48;1740359;80;21131;-76
2021/05/20 10:31:20;;;;;;;2.12;1.75;;;;;;;25.00;53.67;98776.39;1745305;80;21105;-77
2021/05/20 10:33:47;;;;;;;3.22;2.15;;;;;;;25.03;53.53;98781.79;1742079;80;21611;-71
2021/05/20 10:36:27;;;;;;;1.70;1.60;;;;;;;25.05;53.43;98783.67;1738930;81;21037;-71
2021/05/20 10:38:54;;;;;;;2.45;1.67;;;;;;;25.07;53.39;98771.44;1737646;81;21067;-70
2021/05/20 10:41:23;;;;;;;2.35;1.77;;;;;;;25.10;53.25;98770.84;1742122;81;21133;-67
2021/05/20 10:43:56;;;;;;;1.95;1.75;;;;;;;25.12;53.07;98778.72;1743597;80;21074;-70
2021/05/20 10:46:23;;;;;;;2.75;1.70;;;;;;;25.14;52.88;98772.45;1734218;82;21065;-69
2021/05/20 10:48:54;;;;;;;2.87;2.02;;;;;;;25.15;52.71;98767.28;1735651;80;21136;-70
2021/05/20 10:51:25;;;;;;;2.90;1.57;;;;;;;25.18;52.54;98779.48;1742839;81;21058;-68
2021/05/20 10:54:05;;;;;;;1.62;1.42;;;;;;;25.22;52.29;98770.48;1742357;81;21074;-69
2021/05/20 10:56:41;;;;;;;1.62;1.52;;;;;;;25.26;52.20;98760.64;1720613;80;21110;-67
2021/05/20 10:59:36;;;;;;;2.02;1.82;;;;;;;25.33;52.21;98764.95;1749153;80;21072;-69
2021/05/20 11:02:04;;;;;;;2.15;1.92;;;;;;;25.38;52.20;98771.14;1721601;81;21573;-72
2021/05/20 11:04:37;;;;;;;4.53;2.15;;;;;;;25.43;51.86;98771.06;1737103;80;21196;-72
2021/05/20 11:07:04;;;;;;;1.85;1.75;;;;;;;25.50;51.58;98766.66;1736596;80;21097;-71
2021/05/20 11:09:47;;;;;;;2.22;1.80;;;;;;;25.55;51.56;98778.81;1737683;81;21088;-72
2021/05/20 11:12:17;;;;;;;4.97;1.60;;;;;;;25.60;51.53;98776.59;1731043;81;21557;-65
2021/05/20 11:14:45;;;;;;;4.62;1.70;;;;;;;25.63;51.38;98776.83;1749903;80;21588;-68
2021/05/20 11:17:31;;;;;;;1.98;1.72;;;;;;;25.65;51.26;98775.16;1737102;81;21565;-67
2021/05/20 11:20:31;;;;;;;2.00;1.80;;;;;;;25.69;51.20;98782.98;1737241;80;21526;-67
2021/05/20 11:23:20;;;;;;;6.50;1.87;;;;;;;25.70;51.47;98777.82;1738672;80;21146;-68
2021/05/20 11:26:02;;;;;;;3.75;1.60;;;;;;;25.69;51.95;98791.98;1733736;80;21191;-66
2021/05/20 11:28:28;;;;;;;1.98;1.60;;;;;;;25.70;52.35;98790.06;1742899;80;21046;-70
2021/05/20 11:31:00;;;;;;;5.28;1.70;;;;;;;25.72;52.65;98787.86;1741952;80;21147;-69
2021/05/20 11:33:30;;;;;;;3.17;1.85;;;;;;;25.74;51.76;98798.45;1748880;80;21292;-71
2021/05/20 11:38:28;;;;;;;2.45;1.85;;;;;;;25.78;49.38;98795.41;1738518;80;21099;-68
2021/05/20 11:40:55;;;;;;;1.95;1.67;;;;;;;25.81;48.55;98801.63;1725164;80;21075;-69
2021/05/20 11:43:29;;;;;;;2.98;1.90;;;;;;;25.85;47.40;98791.23;1734317;80;21596;-70
2021/05/20 11:45:55;;;;;;;1.85;1.52;;;;;;;25.93;46.41;98791.16;1742014;80;21066;-71
2021/05/20 11:48:21;;;;;;;3.95;1.70;;;;;;;26.03;45.17;98785.56;1748689;80;21164;-73
2021/05/20 11:50:53;;;;;;;10.85;2.02;;;;;;;26.09;44.63;98789.83;1758117;80;21595;-73